createdAt,value
2023-04-18T00:00:12.370Z,10.21
2023-04-18T00:02:40.109Z,10.24
2023-04-18T00:05:07.973Z,10.26
2023-04-18T00:07:37.956Z,10.32
2023-04-18T00:10:06.137Z,10.41
2023-04-18T00:12:34.408Z,10.43
2023-04-18T00:15:04.437Z,10.40
2023-04-18T00:17:31.927Z,10.41
2023-04-18T00:19:59.007Z,10.38
2023-04-18T00:22:26.059Z,10.37
2023-04-18T00:24:52.989Z,10.35
2023-04-18T00:27:20.542Z,10.39
2023-04-18T00:29:48.200Z,10.39
2023-04-18T00:32:18.102Z,10.43
2023-04-18T00:34:45.241Z,10.44
2023-04-18T00:37:13.008Z,10.38
2023-04-18T00:39:42.153Z,10.39
2023-04-18T00:42:10.328Z,10.33
2023-04-18T00:44:37.273Z,10.35
2023-04-18T00:47:04.281Z,10.34
2023-04-18T00:49:35.833Z,10.34
2023-04-18T00:52:02.839Z,10.30
2023-04-18T00:54:30.166Z,10.25
2023-04-18T00:56:57.165Z,10.30
2023-04-18T00:59:27.117Z,10.26
2023-04-18T01:01:54.816Z,10.21
2023-04-18T01:04:22.414Z,10.24
2023-04-18T01:06:51.335Z,10.28
2023-04-18T01:09:20.106Z,10.23
2023-04-18T01:11:47.026Z,10.28
2023-04-18T01:14:16.472Z,10.21
2023-04-18T01:16:44.115Z,10.22
2023-04-18T01:19:11.519Z,10.24
2023-04-18T01:21:43.880Z,10.30
2023-04-18T01:24:16.338Z,10.29
2023-04-18T01:26:47.514Z,10.34
2023-04-18T01:29:14.455Z,10.35
2023-04-18T01:31:41.596Z,10.30
2023-04-18T01:34:08.884Z,10.27
2023-04-18T01:36:37.199Z,10.26
2023-04-18T01:39:04.247Z,10.29
2023-04-18T01:41:33.154Z,10.33
2023-04-18T01:44:00.558Z,10.32
2023-04-18T01:46:27.849Z,10.31
2023-04-18T01:48:55.263Z,10.35
2023-04-18T01:51:22.601Z,10.34
2023-04-18T01:53:52.776Z,10.39
2023-04-18T01:56:20.078Z,10.46
2023-04-18T01:58:48.635Z,10.46
2023-04-18T02:01:15.912Z,10.45
2023-04-18T02:03:43.198Z,10.44
2023-04-18T02:06:10.703Z,10.40
2023-04-18T02:08:37.677Z,10.41
2023-04-18T02:11:05.117Z,10.40
2023-04-18T02:13:34.777Z,10.43
2023-04-18T02:16:12.934Z,10.33
2023-04-18T02:18:43.617Z,10.35
2023-04-18T02:21:11.286Z,10.42
2023-04-18T02:23:38.214Z,10.37
2023-04-18T02:26:05.339Z,10.32
2023-04-18T02:28:33.033Z,10.27
2023-04-18T02:31:03.483Z,10.24
2023-04-18T02:33:31.777Z,10.23
2023-04-18T02:35:58.663Z,10.22
2023-04-18T02:38:25.675Z,10.24
2023-04-18T02:40:52.584Z,10.30
2023-04-18T02:43:20.898Z,10.34
2023-04-18T02:45:47.903Z,10.26
2023-04-18T02:48:15.037Z,10.17
2023-04-18T02:50:43.356Z,10.10
2023-04-18T02:53:10.481Z,10.09
2023-04-18T02:55:55.918Z,10.04
2023-04-18T02:58:28.330Z,10.04
2023-04-18T03:01:34.561Z,9.90
2023-04-18T03:04:09.392Z,9.92
2023-04-18T03:06:56.180Z,9.95
2023-04-18T03:09:23.613Z,9.92
2023-04-18T03:11:56.109Z,9.86
2023-04-18T03:14:26.636Z,9.88
2023-04-18T03:16:56.070Z,9.91
2023-04-18T03:19:27.765Z,9.89
2023-04-18T03:21:57.962Z,9.86
2023-04-18T03:24:25.011Z,9.88
2023-04-18T03:26:59.771Z,9.89
2023-04-18T03:29:26.998Z,9.93
2023-04-18T03:31:56.526Z,9.89
2023-04-18T03:34:23.613Z,9.87
2023-04-18T03:36:51.049Z,9.89
2023-04-18T03:39:19.421Z,9.92
2023-04-18T03:41:49.805Z,9.92
2023-04-18T03:44:17.561Z,9.91
2023-04-18T03:46:45.764Z,9.93
2023-04-18T03:49:12.840Z,9.92
2023-04-18T03:51:47.267Z,9.92
2023-04-18T03:54:14.715Z,9.93
2023-04-18T03:56:44.157Z,9.94
2023-04-18T03:59:12.314Z,9.87
2023-04-18T04:01:41.397Z,9.92
2023-04-18T04:04:09.425Z,9.91
2023-04-18T04:06:36.663Z,9.92
2023-04-18T04:09:03.921Z,10.02
2023-04-18T04:11:30.906Z,10.05
2023-04-18T04:13:59.640Z,10.05
2023-04-18T04:16:33.585Z,10.09
2023-04-18T04:19:01.035Z,10.12
2023-04-18T04:21:35.950Z,10.18
2023-04-18T04:24:03.600Z,10.20
2023-04-18T04:26:36.038Z,10.26
2023-04-18T04:29:10.969Z,10.38
2023-04-18T04:31:39.443Z,10.39
2023-04-18T04:34:07.063Z,10.37
2023-04-18T04:36:34.878Z,10.40
2023-04-18T04:39:05.362Z,10.41
2023-04-18T04:41:42.932Z,10.41
2023-04-18T04:44:12.685Z,10.45
2023-04-18T04:46:40.414Z,10.48
2023-04-18T04:49:14.453Z,10.50
2023-04-18T04:51:43.031Z,10.49
2023-04-18T04:54:10.861Z,10.51
2023-04-18T04:56:38.281Z,10.54
2023-04-18T04:59:06.012Z,10.53
2023-04-18T05:01:41.592Z,10.56
2023-04-18T05:04:08.753Z,10.55
2023-04-18T05:06:35.906Z,10.56
2023-04-18T05:09:02.823Z,10.53
2023-04-18T05:11:32.495Z,10.46
2023-04-18T05:14:02.422Z,10.42
2023-04-18T05:16:29.629Z,10.48
2023-04-18T05:18:57.980Z,10.47
2023-04-18T05:21:26.155Z,10.44
2023-04-18T05:23:53.232Z,10.40
2023-04-18T05:26:21.127Z,10.38
2023-04-18T05:28:48.232Z,10.42
2023-04-18T05:31:15.272Z,10.47
2023-04-18T05:33:42.341Z,10.49
2023-04-18T05:36:10.826Z,10.54
2023-04-18T05:38:37.770Z,10.57
2023-04-18T05:41:04.902Z,10.56
2023-04-18T05:43:32.014Z,10.54
2023-04-18T05:45:59.151Z,10.57
2023-04-18T05:48:26.230Z,10.60
2023-04-18T05:50:53.131Z,10.62
2023-04-18T05:53:21.496Z,10.58
2023-04-18T05:55:48.963Z,10.52
2023-04-18T05:58:16.079Z,10.52
2023-04-18T06:00:44.292Z,10.53
2023-04-18T06:03:11.800Z,10.55
2023-04-18T06:05:41.020Z,10.56
2023-04-18T06:08:08.154Z,10.55
2023-04-18T06:10:38.964Z,10.62
2023-04-18T06:13:06.216Z,10.69
2023-04-18T06:15:33.813Z,10.72
2023-04-18T06:18:01.071Z,10.71
2023-04-18T06:20:28.178Z,10.74
2023-04-18T06:22:55.284Z,10.74
2023-04-18T06:25:22.636Z,10.79
2023-04-18T06:27:50.925Z,10.82
2023-04-18T06:30:21.878Z,10.84
2023-04-18T06:32:49.433Z,10.86
2023-04-18T06:35:16.861Z,10.88
2023-04-18T06:37:44.982Z,10.88
2023-04-18T06:40:12.756Z,10.86
2023-04-18T06:42:39.737Z,10.87
2023-04-18T06:45:10.760Z,10.83
2023-04-18T06:47:37.814Z,10.88
2023-04-18T06:50:06.157Z,10.85
2023-04-18T06:52:33.320Z,10.78
2023-04-18T06:55:00.228Z,10.69
2023-04-18T06:57:27.325Z,10.66
2023-04-18T06:59:54.263Z,10.72
2023-04-18T07:02:22.653Z,10.83
2023-04-18T07:04:50.204Z,10.95
2023-04-18T07:07:17.336Z,10.90
2023-04-18T07:09:44.237Z,10.88
2023-04-18T07:12:11.167Z,10.91
2023-04-18T07:14:38.758Z,10.95
2023-04-18T07:17:05.836Z,10.95
2023-04-18T07:19:34.201Z,10.91
2023-04-18T07:22:01.334Z,10.88
2023-04-18T07:24:28.629Z,10.83
2023-04-18T07:26:55.616Z,10.84
2023-04-18T07:29:22.538Z,10.86
2023-04-18T07:31:49.875Z,10.93
2023-04-18T07:34:17.481Z,10.95
2023-04-18T07:36:45.878Z,10.80
2023-04-18T07:39:12.813Z,10.84
2023-04-18T07:41:39.835Z,10.85
2023-04-18T07:44:07.097Z,10.85
2023-04-18T07:46:34.171Z,10.83
2023-04-18T07:49:02.449Z,10.92
2023-04-18T07:51:31.851Z,10.98
2023-04-18T07:54:00.445Z,11.12
2023-04-18T07:56:28.847Z,11.12
2023-04-18T07:58:55.869Z,11.13
2023-04-18T08:01:24.761Z,11.15
2023-04-18T08:03:53.609Z,11.22
2023-04-18T08:06:21.486Z,11.26
2023-04-18T08:08:48.500Z,11.27
2023-04-18T08:11:16.866Z,11.24
2023-04-18T08:13:44.198Z,11.31
2023-04-18T08:16:11.158Z,11.46
2023-04-18T08:18:38.142Z,11.61
2023-04-18T08:21:05.716Z,11.79
2023-04-18T08:23:32.624Z,11.86
2023-04-18T08:25:59.586Z,11.83
2023-04-18T08:28:27.853Z,11.80
2023-04-18T08:30:56.505Z,11.78
2023-04-18T08:33:24.532Z,11.80
2023-04-18T08:35:51.894Z,11.67
2023-04-18T08:38:19.457Z,11.61
2023-04-18T08:40:47.214Z,11.56
2023-04-18T08:43:15.714Z,11.46
2023-04-18T08:45:44.847Z,11.44
2023-04-18T08:48:13.182Z,11.46
2023-04-18T08:50:40.739Z,11.52
2023-04-18T08:53:08.235Z,11.67
2023-04-18T08:55:35.809Z,11.66
2023-04-18T08:58:03.139Z,11.62
2023-04-18T09:00:30.841Z,11.66
2023-04-18T09:02:59.464Z,11.71
2023-04-18T09:05:27.681Z,11.81
2023-04-18T09:07:56.284Z,11.90
2023-04-18T09:10:29.016Z,11.97
2023-04-18T09:15:27.266Z,12.02
2023-04-18T09:17:56.497Z,11.95
2023-04-18T09:20:36.029Z,12.01
2023-04-18T09:23:04.627Z,12.03
2023-04-18T09:25:39.815Z,12.08
2023-04-18T09:28:23.404Z,12.16
2023-04-18T09:30:52.429Z,12.21
2023-04-18T09:33:28.381Z,12.38
2023-04-18T09:35:57.291Z,12.46
2023-04-18T09:38:39.808Z,12.45
2023-04-18T09:41:10.735Z,12.40
2023-04-18T09:43:39.390Z,12.37
2023-04-18T09:46:08.042Z,12.27
2023-04-18T09:48:35.313Z,12.32
2023-04-18T09:51:07.023Z,12.37
2023-04-18T09:53:35.053Z,12.36
2023-04-18T09:56:03.403Z,12.44
2023-04-18T09:58:33.128Z,12.56
2023-04-18T10:01:00.811Z,12.66
2023-04-18T10:03:34.583Z,12.70
2023-04-18T10:06:03.697Z,12.78
2023-04-18T10:08:31.987Z,12.76
2023-04-18T10:10:59.082Z,12.72
2023-04-18T10:13:28.038Z,12.74
2023-04-18T10:15:55.527Z,12.75
2023-04-18T10:18:24.385Z,12.81
2023-04-18T10:21:00.501Z,12.84
2023-04-18T10:23:39.401Z,12.84
2023-04-18T10:26:07.160Z,12.80
2023-04-18T10:28:58.572Z,12.79
2023-04-18T10:31:27.168Z,12.93
2023-04-18T10:34:04.640Z,13.07
2023-04-18T10:36:33.097Z,13.27
2023-04-18T10:39:05.831Z,13.44
2023-04-18T10:41:33.926Z,13.40
2023-04-18T10:44:22.279Z,13.54
2023-04-18T10:47:21.135Z,13.93
2023-04-18T10:49:57.073Z,14.26
2023-04-18T10:52:24.359Z,14.43
2023-04-18T10:54:58.487Z,14.37
2023-04-18T10:57:37.799Z,14.42
2023-04-18T11:00:09.484Z,14.49
2023-04-18T11:02:37.150Z,14.49
2023-04-18T11:05:05.503Z,14.47
2023-04-18T11:07:34.056Z,14.53
2023-04-18T11:10:02.838Z,14.58
2023-04-18T11:12:31.921Z,14.56
2023-04-18T11:14:59.496Z,14.63
2023-04-18T11:17:27.741Z,14.73
2023-04-18T11:20:01.159Z,14.71
2023-04-18T11:22:28.404Z,14.76
2023-04-18T11:24:58.798Z,14.71
2023-04-18T11:27:27.169Z,14.53
2023-04-18T11:29:55.082Z,14.34
2023-04-18T11:32:23.484Z,14.22
2023-04-18T11:34:54.586Z,14.15
2023-04-18T11:37:21.943Z,14.12
2023-04-18T11:39:49.027Z,14.10
2023-04-18T11:42:16.297Z,14.10
2023-04-18T11:44:47.866Z,14.12
2023-04-18T11:47:25.750Z,14.15
2023-04-18T11:49:57.369Z,14.27
2023-04-18T11:52:26.049Z,14.35
2023-04-18T11:54:53.134Z,14.37
2023-04-18T11:57:22.383Z,14.39
2023-04-18T11:59:56.469Z,14.40
2023-04-18T12:02:25.914Z,14.40
2023-04-18T12:04:56.080Z,14.48
2023-04-18T12:07:37.759Z,14.62
2023-04-18T12:10:06.918Z,14.86
2023-04-18T12:12:34.132Z,15.23
2023-04-18T12:15:05.554Z,15.74
2023-04-18T12:17:32.728Z,16.07
2023-04-18T12:20:04.872Z,16.29
2023-04-18T12:22:42.257Z,16.31
2023-04-18T12:25:27.165Z,16.30
2023-04-18T12:27:58.362Z,16.38
2023-04-18T12:30:30.332Z,16.46
2023-04-18T12:32:58.979Z,16.46
2023-04-18T12:35:26.217Z,16.50
2023-04-18T12:37:55.253Z,16.73
2023-04-18T12:40:23.107Z,17.00
2023-04-18T12:42:51.511Z,17.25
2023-04-18T12:45:20.163Z,17.40
2023-04-18T12:47:50.320Z,17.50
2023-04-18T12:50:19.623Z,17.53
2023-04-18T12:52:46.921Z,17.57
2023-04-18T12:55:14.384Z,17.47
2023-04-18T12:57:42.589Z,17.32
2023-04-18T13:00:11.229Z,17.26
2023-04-18T13:02:40.153Z,17.23
2023-04-18T13:05:10.413Z,17.19
2023-04-18T13:07:38.087Z,17.21
2023-04-18T13:10:05.952Z,17.27
2023-04-18T13:12:32.967Z,17.38
2023-04-18T13:14:59.878Z,17.49
2023-04-18T13:17:26.874Z,17.48
2023-04-18T13:19:53.866Z,17.48
2023-04-18T13:22:22.431Z,17.41
2023-04-18T13:24:49.449Z,17.30
2023-04-18T13:27:16.404Z,17.24
2023-04-18T13:29:45.680Z,17.14
2023-04-18T13:32:16.056Z,17.05
2023-04-18T13:34:44.439Z,17.05
2023-04-18T13:37:11.555Z,17.16
2023-04-18T13:39:40.333Z,17.27
2023-04-18T13:42:07.719Z,17.30
2023-04-18T13:44:35.892Z,17.31
2023-04-18T13:47:03.978Z,17.40
2023-04-18T13:49:31.275Z,17.38
2023-04-18T13:51:58.332Z,17.30
2023-04-18T13:54:26.648Z,17.21
2023-04-18T13:56:57.152Z,17.19
2023-04-18T13:59:24.296Z,17.19
2023-04-18T14:01:52.118Z,17.16
2023-04-18T14:04:20.718Z,17.12
2023-04-18T14:06:48.874Z,17.04
2023-04-18T14:09:16.747Z,16.95
2023-04-18T14:11:44.106Z,16.91
2023-04-18T14:14:12.550Z,16.91
2023-04-18T14:16:39.578Z,16.92
2023-04-18T14:19:06.748Z,16.92
2023-04-18T14:21:33.686Z,16.88
2023-04-18T14:24:00.594Z,16.84
2023-04-18T14:26:27.782Z,16.80
2023-04-18T14:28:54.730Z,16.75
2023-04-18T14:31:23.160Z,16.69
2023-04-18T14:33:50.150Z,16.66
2023-04-18T14:36:17.173Z,16.67
2023-04-18T14:38:48.359Z,16.66
2023-04-18T14:41:15.465Z,16.62
2023-04-18T14:43:43.174Z,16.61
2023-04-18T14:46:13.830Z,16.60
2023-04-18T14:48:42.474Z,16.58
2023-04-18T14:51:09.400Z,16.57
2023-04-18T14:53:36.536Z,16.48
2023-04-18T14:56:03.729Z,16.40
2023-04-18T14:58:30.688Z,16.33
2023-04-18T15:00:57.643Z,16.30
2023-04-18T15:03:25.028Z,16.26
2023-04-18T15:05:53.833Z,16.20
2023-04-18T15:08:21.273Z,16.12
2023-04-18T15:10:48.198Z,16.05
2023-04-18T15:13:15.990Z,16.01
2023-04-18T15:15:43.060Z,15.92
2023-04-18T15:18:11.236Z,15.87
2023-04-18T15:20:39.554Z,15.83
2023-04-18T15:23:09.786Z,15.83
2023-04-18T15:25:36.827Z,15.82
2023-04-18T15:28:04.043Z,15.84
2023-04-18T15:30:31.049Z,15.85
2023-04-18T15:32:58.653Z,15.85
2023-04-18T15:35:25.887Z,15.82
2023-04-18T15:37:54.050Z,15.76
2023-04-18T15:40:22.403Z,15.73
2023-04-18T15:42:50.970Z,15.75
2023-04-18T15:45:18.542Z,15.78
2023-04-18T15:47:45.585Z,15.80
2023-04-18T15:50:12.824Z,15.79
2023-04-18T15:52:41.507Z,15.77
2023-04-18T15:55:10.785Z,15.74
2023-04-18T15:57:39.275Z,15.69
2023-04-18T16:00:11.814Z,15.64
2023-04-18T16:02:38.924Z,15.52
2023-04-18T16:05:07.463Z,15.43
2023-04-18T16:07:34.549Z,15.38
2023-04-18T16:10:03.534Z,15.31
2023-04-18T16:12:30.549Z,15.22
2023-04-18T16:14:59.061Z,15.14
2023-04-18T16:17:25.980Z,15.12
2023-04-18T16:19:54.244Z,15.08
2023-04-18T16:22:21.916Z,15.05
2023-04-18T16:24:48.835Z,15.05
2023-04-18T16:27:16.937Z,15.04
2023-04-18T16:29:49.695Z,15.01
2023-04-18T16:32:18.028Z,14.97
2023-04-18T16:34:45.059Z,14.94
2023-04-18T16:37:15.074Z,14.90
2023-04-18T16:39:42.522Z,14.89
2023-04-18T16:42:09.468Z,14.87
2023-04-18T16:44:36.364Z,14.88
2023-04-18T16:47:05.144Z,14.89
2023-04-18T16:49:33.966Z,14.87
2023-04-18T16:52:01.866Z,14.84
2023-04-18T16:54:28.943Z,14.84
2023-04-18T16:56:55.853Z,14.83
2023-04-18T16:59:23.178Z,14.83
2023-04-18T17:01:50.252Z,14.81
2023-04-18T17:04:17.503Z,14.82
2023-04-18T17:06:46.630Z,14.82
2023-04-18T17:09:14.701Z,14.81
2023-04-18T17:11:41.986Z,14.78
2023-04-18T17:14:09.125Z,14.77
2023-04-18T17:16:40.686Z,14.75
2023-04-18T17:19:08.596Z,14.74
2023-04-18T17:21:36.530Z,14.71
2023-04-18T17:24:06.958Z,14.70
2023-04-18T17:26:35.011Z,14.68
2023-04-18T17:29:04.147Z,14.65
2023-04-18T17:31:31.551Z,14.63
2023-04-18T17:33:58.958Z,14.61
2023-04-18T17:36:26.362Z,14.60
2023-04-18T17:38:53.319Z,14.57
2023-04-18T17:41:22.072Z,14.54
2023-04-18T17:43:50.987Z,14.52
2023-04-18T17:46:18.243Z,14.49
2023-04-18T17:48:45.385Z,14.48
2023-04-18T17:51:12.646Z,14.47
2023-04-18T17:53:39.562Z,14.45
2023-04-18T17:56:06.545Z,14.45
2023-04-18T17:58:34.903Z,14.43
2023-04-18T18:01:01.846Z,14.43
2023-04-18T18:03:29.052Z,14.41
2023-04-18T18:05:56.173Z,14.41
2023-04-18T18:08:23.290Z,14.40
2023-04-18T18:10:53.263Z,14.39
2023-04-18T18:13:20.292Z,14.38
2023-04-18T18:15:48.627Z,14.38
2023-04-18T18:18:27.183Z,14.37
2023-04-18T18:20:54.656Z,14.38
2023-04-18T18:23:22.068Z,14.37
2023-04-18T18:25:50.300Z,14.37
2023-04-18T18:28:17.589Z,14.36
2023-04-18T18:30:44.734Z,14.34
2023-04-18T18:33:13.901Z,14.34
2023-04-18T18:35:40.840Z,14.33
2023-04-18T18:38:07.755Z,14.33
2023-04-18T18:40:34.762Z,14.32
2023-04-18T18:43:01.661Z,14.31
2023-04-18T18:45:28.838Z,14.30
2023-04-18T18:47:55.796Z,14.31
2023-04-18T18:50:24.178Z,14.30
2023-04-18T18:52:51.179Z,14.29
2023-04-18T18:55:18.735Z,14.29
2023-04-18T18:57:45.658Z,14.25
2023-04-18T19:00:13.538Z,14.23
2023-04-18T19:02:40.765Z,14.23
2023-04-18T19:05:12.534Z,14.22
2023-04-18T19:07:43.711Z,14.22
2023-04-18T19:10:11.055Z,14.20
2023-04-18T19:12:38.195Z,14.20
2023-04-18T19:15:06.483Z,14.19
2023-04-18T19:17:33.659Z,14.11
2023-04-18T19:20:01.612Z,14.09
2023-04-18T19:22:28.888Z,14.09
2023-04-18T19:24:58.456Z,14.10
2023-04-18T19:27:25.905Z,14.07
2023-04-18T19:29:52.851Z,14.07
2023-04-18T19:32:20.577Z,14.08
2023-04-18T19:34:47.656Z,14.07
2023-04-18T19:37:14.546Z,14.07
2023-04-18T19:39:41.458Z,14.07
2023-04-18T19:42:10.377Z,14.06
2023-04-18T19:44:37.279Z,14.03
2023-04-18T19:47:04.242Z,14.01
2023-04-18T19:49:31.207Z,14.02
2023-04-18T19:51:58.140Z,14.01
2023-04-18T19:54:25.164Z,13.97
2023-04-18T19:56:52.193Z,13.91
2023-04-18T19:59:20.616Z,13.88
2023-04-18T20:01:47.654Z,13.85
2023-04-18T20:04:14.891Z,13.75
2023-04-18T20:06:42.647Z,13.68
2023-04-18T20:09:15.425Z,13.62
2023-04-18T20:11:43.143Z,13.55
2023-04-18T20:14:10.613Z,13.48
2023-04-18T20:16:39.193Z,13.43
2023-04-18T20:19:06.175Z,13.38
2023-04-18T20:21:33.140Z,13.31
2023-04-18T20:24:00.074Z,13.27
2023-04-18T20:26:27.069Z,13.26
2023-04-18T20:28:54.056Z,13.23
2023-04-18T20:31:21.139Z,13.17
2023-04-18T20:33:49.488Z,13.16
2023-04-18T20:36:19.547Z,13.10
2023-04-18T20:38:47.179Z,13.03
2023-04-18T20:41:14.821Z,12.98
2023-04-18T20:43:42.980Z,12.92
2023-04-18T20:46:12.861Z,12.88
2023-04-18T20:48:40.253Z,12.89
2023-04-18T20:51:08.948Z,12.89
2023-04-18T20:53:35.983Z,12.90
2023-04-18T20:56:03.183Z,12.93
2023-04-18T20:58:30.634Z,12.94
2023-04-18T21:00:57.604Z,12.90
2023-04-18T21:03:24.920Z,12.89
2023-04-18T21:05:52.767Z,12.86
2023-04-18T21:08:21.571Z,12.85
2023-04-18T21:10:48.461Z,12.85
2023-04-18T21:13:15.715Z,12.83
2023-04-18T21:15:43.151Z,12.84
2023-04-18T21:18:10.717Z,12.86
2023-04-18T21:20:38.152Z,12.89
2023-04-18T21:23:05.122Z,12.87
2023-04-18T21:25:33.707Z,12.85
2023-04-18T21:28:00.667Z,12.82
2023-04-18T21:30:27.590Z,12.80
2023-04-18T21:32:54.623Z,12.76
2023-04-18T21:35:23.480Z,12.76
2023-04-18T21:37:51.806Z,12.76
2023-04-18T21:40:18.935Z,12.78
2023-04-18T21:42:49.360Z,12.75
2023-04-18T21:45:17.196Z,12.75
2023-04-18T21:47:44.557Z,12.79
2023-04-18T21:50:11.809Z,12.80
2023-04-18T21:52:38.739Z,12.81
2023-04-18T21:55:06.544Z,12.81
2023-04-18T21:57:33.501Z,12.81
2023-04-18T22:00:01.731Z,12.80
2023-04-18T22:02:36.064Z,12.80
2023-04-18T22:05:03.250Z,12.81
2023-04-18T22:07:31.108Z,12.85
2023-04-18T22:09:59.845Z,12.85
2023-04-18T22:12:27.113Z,12.86
2023-04-18T22:14:54.550Z,12.83
2023-04-18T22:17:22.880Z,12.82
2023-04-18T22:19:50.449Z,12.80
2023-04-18T22:22:17.385Z,12.74
2023-04-18T22:24:47.351Z,12.73
2023-04-18T22:27:15.337Z,12.72
2023-04-18T22:29:42.259Z,12.72
2023-04-18T22:32:09.224Z,12.70
2023-04-18T22:34:37.564Z,12.68
2023-04-18T22:37:04.681Z,12.71
2023-04-18T22:39:31.612Z,12.73
2023-04-18T22:41:58.561Z,12.72
2023-04-18T22:44:25.474Z,12.73
2023-04-18T22:46:54.695Z,12.68
2023-04-18T22:49:22.449Z,12.66
2023-04-18T22:51:54.362Z,12.65
2023-04-18T22:54:21.532Z,12.66
2023-04-18T22:56:49.578Z,12.65
2023-04-18T22:59:16.964Z,12.62
2023-04-18T23:01:44.032Z,12.60
2023-04-18T23:04:11.344Z,12.55
2023-04-18T23:06:38.857Z,12.53
2023-04-18T23:09:09.623Z,12.48
2023-04-18T23:11:36.521Z,12.47
2023-04-18T23:14:03.539Z,12.44
2023-04-18T23:16:30.541Z,12.42
2023-04-18T23:18:57.544Z,12.37
2023-04-18T23:21:24.597Z,12.36
2023-04-18T23:23:51.491Z,12.38
2023-04-18T23:26:20.728Z,12.37
2023-04-18T23:28:47.662Z,12.36
2023-04-18T23:31:14.848Z,12.32
2023-04-18T23:33:41.781Z,12.30
2023-04-18T23:36:09.222Z,12.31
2023-04-18T23:38:37.309Z,12.25
2023-04-18T23:41:04.516Z,12.20
2023-04-18T23:43:33.140Z,12.18
2023-04-18T23:46:02.710Z,12.17
2023-04-18T23:48:29.685Z,12.14
2023-04-18T23:50:56.588Z,12.09
2023-04-18T23:53:24.798Z,12.05
2023-04-18T23:55:53.649Z,12.00
2023-04-18T23:58:20.779Z,11.96
